RYR7337 LROP-LCPH
Flight info
| Callsign | RYR7337 |
|---|---|
| Flight time | 1h 44m |
| Altitude | 33000 |
| Route | POLUN DCT RASUB DCT BULEN L605 RIXEN UL620 IST UT35 AYT UA16 TOMBI M855 DASNI M32 TOBAL |
| Aircraft | B738/M-SDE2E3FGHIRWXY/LB1 |
Departure
| Time | 2026-04-15 10:53 |
|---|---|
| Airport | Bucharest Henri Coandă International Airport (LROP) |
Arrival
| Time | 2026-04-15 12:38 |
|---|---|
| Airport | Paphos International Airport (LCPH) |
| Time | Latitude | Longitude | Altitude | Speed | Heading |
|---|---|---|---|---|---|
| 2026-04-15 10:31 | 44.56862 | 26.08720 | 313 ft | 0 kts | 174° |
| 2026-04-15 10:46 | 44.56872 | 26.08719 | 313 ft | 3 kts | 174° |
| 2026-04-15 10:46 | 44.56890 | 26.08717 | 311 ft | 3 kts | 174° |
| 2026-04-15 10:47 | 44.56909 | 26.08714 | 312 ft | 3 kts | 197° |
| 2026-04-15 10:47 | 44.56922 | 26.08729 | 313 ft | 3 kts | 259° |
| 2026-04-15 10:47 | 44.56923 | 26.08734 | 313 ft | 0 kts | 266° |
| 2026-04-15 10:49 | 44.56922 | 26.08726 | 313 ft | 2 kts | 265° |
| 2026-04-15 10:49 | 44.56918 | 26.08683 | 313 ft | 6 kts | 262° |
| 2026-04-15 10:49 | 44.56904 | 26.08608 | 312 ft | 10 kts | 263° |
| 2026-04-15 10:49 | 44.56894 | 26.08493 | 313 ft | 13 kts | 259° |
| 2026-04-15 10:50 | 44.56861 | 26.08353 | 312 ft | 17 kts | 245° |
| 2026-04-15 10:50 | 44.56804 | 26.08200 | 312 ft | 18 kts | 242° |
| 2026-04-15 10:50 | 44.56761 | 26.08037 | 309 ft | 18 kts | 257° |
| 2026-04-15 10:50 | 44.56728 | 26.07877 | 309 ft | 17 kts | 253° |
| 2026-04-15 10:51 | 44.56697 | 26.07720 | 310 ft | 16 kts | 250° |
| 2026-04-15 10:51 | 44.56619 | 26.07669 | 309 ft | 13 kts | 174° |
| 2026-04-15 10:51 | 44.56530 | 26.07683 | 309 ft | 13 kts | 173° |
| 2026-04-15 10:51 | 44.56468 | 26.07724 | 308 ft | 9 kts | 97° |
| 2026-04-15 10:52 | 44.56470 | 26.07749 | 309 ft | 0 kts | 82° |
| 2026-04-15 10:52 | 44.56484 | 26.07917 | 310 ft | 48 kts | 84° |
| 2026-04-15 10:53 | 44.56543 | 26.08702 | 312 ft | 112 kts | 84° |
| 2026-04-15 10:53 | 44.56649 | 26.10038 | 449 ft | 150 kts | 83° |
| 2026-04-15 10:53 | 44.56787 | 26.11481 | 1033 ft | 157 kts | 84° |
| 2026-04-15 10:53 | 44.56889 | 26.13036 | 1730 ft | 161 kts | 84° |
| 2026-04-15 10:54 | 44.57022 | 26.14719 | 2155 ft | 185 kts | 86° |
| 2026-04-15 10:54 | 44.57147 | 26.16615 | 2469 ft | 207 kts | 87° |
| 2026-04-15 10:54 | 44.56943 | 26.18677 | 2809 ft | 224 kts | 115° |
| 2026-04-15 10:54 | 44.55900 | 26.20468 | 3012 ft | 251 kts | 146° |
| 2026-04-15 10:55 | 44.54260 | 26.21339 | 3656 ft | 259 kts | 174° |
| 2026-04-15 10:55 | 44.52449 | 26.21011 | 4437 ft | 268 kts | 199° |
| 2026-04-15 10:55 | 44.50747 | 26.19897 | 5144 ft | 274 kts | 208° |
| 2026-04-15 10:55 | 44.49071 | 26.18646 | 6063 ft | 272 kts | 205° |
| 2026-04-15 10:56 | 44.47353 | 26.17516 | 6837 ft | 275 kts | 205° |
| 2026-04-15 10:56 | 44.45646 | 26.16327 | 7499 ft | 279 kts | 206° |
| 2026-04-15 10:56 | 44.43899 | 26.15093 | 8233 ft | 282 kts | 206° |
| 2026-04-15 10:56 | 44.42128 | 26.13838 | 8944 ft | 285 kts | 206° |
| 2026-04-15 10:57 | 44.40366 | 26.12596 | 9689 ft | 288 kts | 206° |
| 2026-04-15 10:57 | 44.36698 | 26.10010 | 10675 ft | 310 kts | 206° |
| 2026-04-15 10:57 | 44.34658 | 26.08743 | 10826 ft | 331 kts | 193° |
| 2026-04-15 10:58 | 44.32335 | 26.08708 | 10974 ft | 351 kts | 166° |
| 2026-04-15 10:58 | 44.30070 | 26.10193 | 11154 ft | 368 kts | 147° |
| 2026-04-15 10:58 | 44.27896 | 26.12191 | 11521 ft | 378 kts | 147° |
| 2026-04-15 10:58 | 44.25664 | 26.14210 | 12112 ft | 382 kts | 148° |
| 2026-04-15 10:59 | 44.23415 | 26.16169 | 12789 ft | 384 kts | 149° |
| 2026-04-15 10:59 | 44.21105 | 26.18108 | 13394 ft | 389 kts | 150° |
| 2026-04-15 10:59 | 44.18776 | 26.20002 | 13973 ft | 394 kts | 151° |
| 2026-04-15 10:59 | 44.16373 | 26.21914 | 14555 ft | 397 kts | 151° |
| 2026-04-15 11:00 | 44.13956 | 26.23816 | 15191 ft | 400 kts | 152° |
| 2026-04-15 11:00 | 44.11520 | 26.25723 | 15809 ft | 403 kts | 152° |
| 2026-04-15 11:00 | 44.09081 | 26.27621 | 16405 ft | 407 kts | 152° |
| 2026-04-15 11:00 | 44.06590 | 26.29553 | 16988 ft | 411 kts | 152° |
| 2026-04-15 11:01 | 44.04076 | 26.31499 | 17551 ft | 414 kts | 152° |
| 2026-04-15 11:01 | 44.01542 | 26.33460 | 18133 ft | 418 kts | 153° |
| 2026-04-15 11:01 | 43.98986 | 26.35437 | 18666 ft | 422 kts | 153° |
| 2026-04-15 11:01 | 43.96432 | 26.37412 | 19139 ft | 425 kts | 153° |
| 2026-04-15 11:02 | 43.93826 | 26.39425 | 19624 ft | 429 kts | 153° |
| 2026-04-15 11:02 | 43.91198 | 26.41463 | 20096 ft | 432 kts | 153° |
| 2026-04-15 11:02 | 43.88572 | 26.43489 | 20557 ft | 436 kts | 153° |
| 2026-04-15 11:02 | 43.85900 | 26.45545 | 21020 ft | 439 kts | 153° |
| 2026-04-15 11:03 | 43.83239 | 26.47590 | 21466 ft | 443 kts | 153° |
| 2026-04-15 11:03 | 43.80526 | 26.49673 | 21911 ft | 446 kts | 153° |
| 2026-04-15 11:03 | 43.77796 | 26.51768 | 22367 ft | 449 kts | 153° |
| 2026-04-15 11:03 | 43.75046 | 26.53879 | 22877 ft | 450 kts | 153° |
| 2026-04-15 11:04 | 43.72322 | 26.55966 | 23222 ft | 456 kts | 153° |
| 2026-04-15 11:04 | 43.69527 | 26.58105 | 23591 ft | 459 kts | 153° |
| 2026-04-15 11:04 | 43.66708 | 26.60260 | 23980 ft | 462 kts | 153° |
| 2026-04-15 11:04 | 43.63923 | 26.62388 | 24356 ft | 463 kts | 153° |
| 2026-04-15 11:05 | 43.61082 | 26.64557 | 24730 ft | 465 kts | 154° |
| 2026-04-15 11:05 | 43.58261 | 26.66708 | 25090 ft | 467 kts | 154° |
| 2026-04-15 11:05 | 43.55403 | 26.68884 | 25431 ft | 469 kts | 154° |
| 2026-04-15 11:05 | 43.52526 | 26.71073 | 25752 ft | 471 kts | 154° |
| 2026-04-15 11:06 | 43.49666 | 26.73246 | 26054 ft | 474 kts | 154° |
| 2026-04-15 11:06 | 43.46745 | 26.75463 | 26367 ft | 477 kts | 154° |
| 2026-04-15 11:06 | 43.43861 | 26.77649 | 26691 ft | 478 kts | 154° |
| 2026-04-15 11:06 | 43.40938 | 26.79863 | 27013 ft | 480 kts | 154° |
| 2026-04-15 11:07 | 43.38029 | 26.82063 | 27308 ft | 482 kts | 154° |
| 2026-04-15 11:07 | 43.35073 | 26.84297 | 27593 ft | 484 kts | 154° |
| 2026-04-15 11:07 | 43.32103 | 26.86539 | 27915 ft | 485 kts | 154° |
| 2026-04-15 11:07 | 43.29183 | 26.88742 | 28327 ft | 483 kts | 154° |
| 2026-04-15 11:08 | 43.26231 | 26.90967 | 28822 ft | 480 kts | 154° |
| 2026-04-15 11:08 | 43.23323 | 26.93156 | 29267 ft | 479 kts | 154° |
| 2026-04-15 11:08 | 43.20392 | 26.95359 | 29668 ft | 478 kts | 154° |
| 2026-04-15 11:08 | 43.17472 | 26.97552 | 30079 ft | 477 kts | 155° |
| 2026-04-15 11:09 | 43.14551 | 26.99742 | 30479 ft | 476 kts | 155° |
| 2026-04-15 11:09 | 43.11717 | 27.02006 | 30825 ft | 477 kts | 149° |
| 2026-04-15 11:09 | 43.09096 | 27.04849 | 31153 ft | 481 kts | 140° |
| 2026-04-15 11:09 | 43.06797 | 27.08223 | 31471 ft | 485 kts | 131° |
| 2026-04-15 11:10 | 43.04743 | 27.11830 | 31752 ft | 486 kts | 130° |
| 2026-04-15 11:10 | 43.02693 | 27.15510 | 32056 ft | 486 kts | 130° |
| 2026-04-15 11:10 | 43.00646 | 27.19188 | 32450 ft | 483 kts | 130° |
| 2026-04-15 11:10 | 42.98598 | 27.22840 | 32858 ft | 481 kts | 131° |
| 2026-04-15 11:11 | 42.96571 | 27.26418 | 33190 ft | 480 kts | 131° |
| 2026-04-15 11:11 | 42.94502 | 27.30040 | 33217 ft | 484 kts | 131° |
| 2026-04-15 11:11 | 42.90348 | 27.37261 | 33225 ft | 483 kts | 131° |
| 2026-04-15 11:12 | 42.86905 | 27.43228 | 33249 ft | 480 kts | 131° |
| 2026-04-15 11:12 | 42.82790 | 27.50348 | 33246 ft | 478 kts | 131° |
| 2026-04-15 11:13 | 42.78682 | 27.57441 | 33248 ft | 477 kts | 132° |
| 2026-04-15 11:13 | 42.74551 | 27.64553 | 33253 ft | 478 kts | 132° |
| 2026-04-15 11:14 | 42.70438 | 27.71622 | 33260 ft | 480 kts | 132° |
| 2026-04-15 11:14 | 42.66269 | 27.78770 | 33263 ft | 482 kts | 132° |
| 2026-04-15 11:15 | 42.62104 | 27.85895 | 33255 ft | 483 kts | 133° |
| 2026-04-15 11:15 | 42.57922 | 27.93031 | 33267 ft | 485 kts | 133° |
| 2026-04-15 11:16 | 42.53701 | 28.00219 | 33262 ft | 487 kts | 133° |
| 2026-04-15 11:16 | 42.49470 | 28.07404 | 33255 ft | 487 kts | 133° |
| 2026-04-15 11:17 | 42.45238 | 28.14569 | 33260 ft | 488 kts | 133° |
| 2026-04-15 11:17 | 42.40995 | 28.21736 | 33260 ft | 489 kts | 133° |
| 2026-04-15 11:18 | 42.36757 | 28.28880 | 33261 ft | 489 kts | 133° |
| 2026-04-15 11:18 | 42.32488 | 28.36062 | 33258 ft | 489 kts | 133° |
| 2026-04-15 11:19 | 42.28230 | 28.43209 | 33255 ft | 489 kts | 133° |
| 2026-04-15 11:19 | 42.23945 | 28.50382 | 33257 ft | 489 kts | 133° |
| 2026-04-15 11:20 | 42.19693 | 28.57483 | 33256 ft | 489 kts | 133° |
| 2026-04-15 11:20 | 42.15401 | 28.64637 | 33257 ft | 488 kts | 133° |
| 2026-04-15 11:21 | 42.11122 | 28.71692 | 33253 ft | 486 kts | 137° |
| 2026-04-15 11:21 | 42.08579 | 28.74527 | 33254 ft | 472 kts | 156° |
| 2026-04-15 11:21 | 42.05608 | 28.76284 | 33250 ft | 460 kts | 170° |
| 2026-04-15 11:22 | 42.02488 | 28.77024 | 33263 ft | 447 kts | 184° |
| 2026-04-15 11:22 | 41.99417 | 28.77098 | 33242 ft | 445 kts | 186° |
| 2026-04-15 11:22 | 41.93194 | 28.77172 | 33246 ft | 447 kts | 185° |
| 2026-04-15 11:23 | 41.86982 | 28.77393 | 33249 ft | 449 kts | 184° |
| 2026-04-15 11:23 | 41.80724 | 28.77654 | 33238 ft | 450 kts | 185° |
| 2026-04-15 11:24 | 41.74455 | 28.77906 | 33241 ft | 451 kts | 185° |
| 2026-04-15 11:24 | 41.68180 | 28.78161 | 33236 ft | 452 kts | 185° |
| 2026-04-15 11:25 | 41.61866 | 28.78422 | 33241 ft | 453 kts | 185° |
| 2026-04-15 11:25 | 41.55585 | 28.78681 | 33250 ft | 454 kts | 185° |
| 2026-04-15 11:26 | 41.49286 | 28.78939 | 33234 ft | 455 kts | 185° |
| 2026-04-15 11:26 | 41.42935 | 28.79183 | 33235 ft | 455 kts | 185° |
| 2026-04-15 11:27 | 41.36615 | 28.79406 | 33233 ft | 455 kts | 185° |
| 2026-04-15 11:27 | 41.30302 | 28.79630 | 33239 ft | 455 kts | 185° |
| 2026-04-15 11:28 | 41.23947 | 28.79859 | 33251 ft | 455 kts | 185° |
| 2026-04-15 11:28 | 41.17621 | 28.80118 | 33227 ft | 456 kts | 184° |
| 2026-04-15 11:29 | 41.11315 | 28.80413 | 33213 ft | 455 kts | 184° |
| 2026-04-15 11:29 | 41.04962 | 28.80703 | 33215 ft | 455 kts | 184° |
| 2026-04-15 11:30 | 40.98644 | 28.81008 | 33204 ft | 457 kts | 182° |
| 2026-04-15 11:30 | 40.92395 | 28.82922 | 33207 ft | 472 kts | 164° |
| 2026-04-15 11:31 | 40.86311 | 28.86301 | 33208 ft | 473 kts | 163° |
| 2026-04-15 11:31 | 40.80266 | 28.89700 | 33198 ft | 472 kts | 163° |
| 2026-04-15 11:32 | 40.74239 | 28.93018 | 33182 ft | 471 kts | 164° |
| 2026-04-15 11:32 | 40.68154 | 28.96323 | 33173 ft | 470 kts | 164° |
| 2026-04-15 11:33 | 40.62118 | 28.99589 | 33183 ft | 470 kts | 164° |
| 2026-04-15 11:33 | 40.56084 | 29.02856 | 33174 ft | 470 kts | 164° |
| 2026-04-15 11:34 | 40.50012 | 29.06128 | 33166 ft | 470 kts | 164° |
| 2026-04-15 11:34 | 40.43948 | 29.09391 | 33173 ft | 469 kts | 164° |
| 2026-04-15 11:35 | 40.37918 | 29.12631 | 33174 ft | 469 kts | 164° |
| 2026-04-15 11:35 | 40.31910 | 29.15855 | 33162 ft | 468 kts | 164° |
| 2026-04-15 11:36 | 40.25907 | 29.19066 | 33150 ft | 467 kts | 164° |
| 2026-04-15 11:36 | 40.19866 | 29.22298 | 33149 ft | 466 kts | 164° |
| 2026-04-15 11:37 | 40.13875 | 29.25494 | 33138 ft | 465 kts | 164° |
| 2026-04-15 11:37 | 40.07910 | 29.28660 | 33166 ft | 463 kts | 165° |
| 2026-04-15 11:38 | 40.01951 | 29.31832 | 33154 ft | 463 kts | 164° |
| 2026-04-15 11:38 | 39.95986 | 29.35000 | 33146 ft | 463 kts | 165° |
| 2026-04-15 11:39 | 39.90001 | 29.38170 | 33134 ft | 463 kts | 164° |
| 2026-04-15 11:39 | 39.84080 | 29.41410 | 33148 ft | 463 kts | 163° |
| 2026-04-15 11:40 | 39.78175 | 29.44680 | 33147 ft | 462 kts | 163° |
| 2026-04-15 11:40 | 39.72234 | 29.47947 | 33141 ft | 462 kts | 163° |
| 2026-04-15 11:41 | 39.66335 | 29.51176 | 33140 ft | 461 kts | 163° |
| 2026-04-15 11:41 | 39.60434 | 29.54324 | 33134 ft | 459 kts | 165° |
| 2026-04-15 11:42 | 39.54458 | 29.57287 | 33143 ft | 457 kts | 165° |
| 2026-04-15 11:42 | 39.48533 | 29.60201 | 33147 ft | 457 kts | 165° |
| 2026-04-15 11:43 | 39.42613 | 29.63137 | 33135 ft | 457 kts | 164° |
| 2026-04-15 11:43 | 39.36670 | 29.66096 | 33145 ft | 457 kts | 164° |
| 2026-04-15 11:44 | 39.30746 | 29.69042 | 33150 ft | 457 kts | 164° |
| 2026-04-15 11:44 | 39.24825 | 29.71982 | 33152 ft | 457 kts | 164° |
| 2026-04-15 11:45 | 39.18854 | 29.74940 | 33148 ft | 458 kts | 163° |
| 2026-04-15 11:45 | 39.12917 | 29.77875 | 33151 ft | 459 kts | 164° |
| 2026-04-15 11:46 | 39.06973 | 29.80807 | 33159 ft | 459 kts | 163° |
| 2026-04-15 11:46 | 39.00981 | 29.83760 | 33138 ft | 460 kts | 163° |
| 2026-04-15 11:47 | 38.95038 | 29.86683 | 33146 ft | 460 kts | 163° |
| 2026-04-15 11:47 | 38.89035 | 29.89630 | 33158 ft | 461 kts | 163° |
| 2026-04-15 11:48 | 38.83042 | 29.92506 | 33150 ft | 462 kts | 164° |
| 2026-04-15 11:48 | 38.76992 | 29.95366 | 33164 ft | 463 kts | 164° |
| 2026-04-15 11:49 | 38.70952 | 29.98223 | 33159 ft | 463 kts | 164° |
| 2026-04-15 11:49 | 38.64882 | 30.01097 | 33161 ft | 464 kts | 164° |
| 2026-04-15 11:50 | 38.58833 | 30.03959 | 33159 ft | 464 kts | 164° |
| 2026-04-15 11:50 | 38.52785 | 30.06815 | 33157 ft | 463 kts | 164° |
| 2026-04-15 11:51 | 38.46764 | 30.09652 | 33157 ft | 462 kts | 163° |
| 2026-04-15 11:51 | 38.40753 | 30.12481 | 33152 ft | 461 kts | 163° |
| 2026-04-15 11:52 | 38.34709 | 30.15319 | 33165 ft | 461 kts | 163° |
| 2026-04-15 11:52 | 38.28684 | 30.18088 | 33155 ft | 461 kts | 164° |
| 2026-04-15 11:53 | 38.22656 | 30.20823 | 33164 ft | 462 kts | 163° |
| 2026-04-15 11:53 | 38.16582 | 30.23618 | 33165 ft | 463 kts | 163° |
| 2026-04-15 11:54 | 38.10522 | 30.26408 | 33163 ft | 465 kts | 163° |
| 2026-04-15 11:54 | 38.04429 | 30.29203 | 33151 ft | 467 kts | 164° |
| 2026-04-15 11:55 | 37.98318 | 30.31992 | 33163 ft | 468 kts | 164° |
| 2026-04-15 11:55 | 37.92183 | 30.34767 | 33190 ft | 469 kts | 164° |
| 2026-04-15 11:56 | 37.85995 | 30.37559 | 33183 ft | 470 kts | 164° |
| 2026-04-15 11:56 | 37.79871 | 30.40320 | 33174 ft | 470 kts | 164° |
| 2026-04-15 11:57 | 37.70618 | 30.44486 | 33175 ft | 470 kts | 164° |
| 2026-04-15 11:58 | 37.64464 | 30.47250 | 33166 ft | 471 kts | 164° |
| 2026-04-15 11:58 | 37.58255 | 30.50034 | 33125 ft | 472 kts | 164° |
| 2026-04-15 11:59 | 37.53114 | 30.52335 | 33131 ft | 471 kts | 164° |
| 2026-04-15 11:59 | 37.46957 | 30.55089 | 33133 ft | 471 kts | 164° |
| 2026-04-15 12:00 | 37.40756 | 30.57855 | 33129 ft | 470 kts | 164° |
| 2026-04-15 12:00 | 37.34608 | 30.60592 | 33118 ft | 470 kts | 164° |
| 2026-04-15 12:01 | 37.28448 | 30.63332 | 33137 ft | 469 kts | 164° |
| 2026-04-15 12:01 | 37.22306 | 30.66058 | 33132 ft | 469 kts | 164° |
| 2026-04-15 12:02 | 37.16129 | 30.68796 | 33117 ft | 469 kts | 164° |
| 2026-04-15 12:02 | 37.09989 | 30.71512 | 33097 ft | 467 kts | 164° |
| 2026-04-15 12:03 | 37.03868 | 30.74215 | 33108 ft | 466 kts | 164° |
| 2026-04-15 12:03 | 36.97780 | 30.76899 | 33096 ft | 465 kts | 164° |
| 2026-04-15 12:04 | 36.91606 | 30.79285 | 33101 ft | 460 kts | 173° |
| 2026-04-15 12:04 | 36.85310 | 30.79774 | 33114 ft | 453 kts | 183° |
| 2026-04-15 12:05 | 36.78983 | 30.79908 | 33098 ft | 452 kts | 182° |
| 2026-04-15 12:05 | 36.72710 | 30.80092 | 33100 ft | 451 kts | 182° |
| 2026-04-15 12:06 | 36.66466 | 30.80312 | 33115 ft | 451 kts | 182° |
| 2026-04-15 12:06 | 36.60177 | 30.80539 | 33091 ft | 450 kts | 182° |
| 2026-04-15 12:07 | 36.53950 | 30.80762 | 33091 ft | 449 kts | 182° |
| 2026-04-15 12:07 | 36.47711 | 30.80983 | 33084 ft | 448 kts | 182° |
| 2026-04-15 12:08 | 36.41501 | 30.81203 | 33097 ft | 448 kts | 182° |
| 2026-04-15 12:08 | 36.35246 | 30.81409 | 33090 ft | 447 kts | 182° |
| 2026-04-15 12:09 | 36.29043 | 30.81604 | 33084 ft | 447 kts | 182° |
| 2026-04-15 12:09 | 36.22803 | 30.81802 | 33084 ft | 448 kts | 182° |
| 2026-04-15 12:10 | 36.16599 | 30.82001 | 33078 ft | 448 kts | 182° |
| 2026-04-15 12:10 | 36.10378 | 30.82200 | 33078 ft | 447 kts | 182° |
| 2026-04-15 12:11 | 36.04158 | 30.82398 | 33078 ft | 447 kts | 182° |
| 2026-04-15 12:11 | 35.97924 | 30.82731 | 33087 ft | 448 kts | 180° |
| 2026-04-15 12:12 | 35.91725 | 30.83145 | 33069 ft | 447 kts | 180° |
| 2026-04-15 12:12 | 35.85521 | 30.83542 | 33066 ft | 447 kts | 181° |
| 2026-04-15 12:13 | 35.79276 | 30.83926 | 33055 ft | 447 kts | 181° |
| 2026-04-15 12:13 | 35.73061 | 30.84306 | 33082 ft | 447 kts | 181° |
| 2026-04-15 12:14 | 35.66875 | 30.84691 | 33065 ft | 447 kts | 179° |
| 2026-04-15 12:14 | 35.63803 | 30.85529 | 33060 ft | 456 kts | 160° |
| 2026-04-15 12:14 | 35.61048 | 30.87462 | 33058 ft | 464 kts | 146° |
| 2026-04-15 12:14 | 35.58736 | 30.90265 | 33072 ft | 472 kts | 130° |
| 2026-04-15 12:15 | 35.56865 | 30.93622 | 33076 ft | 474 kts | 127° |
| 2026-04-15 12:15 | 35.53308 | 31.00442 | 33039 ft | 476 kts | 126° |
| 2026-04-15 12:16 | 35.49743 | 31.07268 | 33057 ft | 476 kts | 126° |
| 2026-04-15 12:16 | 35.46102 | 31.14098 | 33057 ft | 478 kts | 127° |
| 2026-04-15 12:16 | 35.44269 | 31.17504 | 32626 ft | 484 kts | 127° |
| 2026-04-15 12:17 | 35.42404 | 31.20960 | 31990 ft | 482 kts | 127° |
| 2026-04-15 12:17 | 35.40550 | 31.24391 | 31263 ft | 482 kts | 126° |
| 2026-04-15 12:17 | 35.38714 | 31.27789 | 30536 ft | 482 kts | 126° |
| 2026-04-15 12:17 | 35.36852 | 31.31231 | 29710 ft | 483 kts | 126° |
| 2026-04-15 12:18 | 35.34989 | 31.34672 | 28805 ft | 484 kts | 126° |
| 2026-04-15 12:18 | 35.33145 | 31.38076 | 27955 ft | 483 kts | 126° |
| 2026-04-15 12:18 | 35.31280 | 31.41516 | 27039 ft | 484 kts | 126° |
| 2026-04-15 12:18 | 35.29432 | 31.44922 | 26379 ft | 480 kts | 126° |
| 2026-04-15 12:19 | 35.27588 | 31.48318 | 25747 ft | 476 kts | 126° |
| 2026-04-15 12:19 | 35.25752 | 31.51697 | 25118 ft | 472 kts | 126° |
| 2026-04-15 12:19 | 35.23951 | 31.55007 | 24495 ft | 469 kts | 126° |
| 2026-04-15 12:19 | 35.22139 | 31.58332 | 23836 ft | 466 kts | 125° |
| 2026-04-15 12:20 | 35.20357 | 31.61598 | 23128 ft | 464 kts | 125° |
| 2026-04-15 12:20 | 35.18565 | 31.64881 | 22446 ft | 460 kts | 125° |
| 2026-04-15 12:20 | 35.16789 | 31.68133 | 21795 ft | 456 kts | 125° |
| 2026-04-15 12:20 | 35.15048 | 31.71317 | 21176 ft | 451 kts | 125° |
| 2026-04-15 12:21 | 35.13307 | 31.74498 | 20555 ft | 447 kts | 125° |
| 2026-04-15 12:21 | 35.11578 | 31.77654 | 19946 ft | 443 kts | 125° |
| 2026-04-15 12:21 | 35.09884 | 31.80744 | 19346 ft | 439 kts | 125° |
| 2026-04-15 12:21 | 35.08187 | 31.83835 | 18727 ft | 436 kts | 124° |
| 2026-04-15 12:22 | 35.06510 | 31.86888 | 18074 ft | 434 kts | 125° |
| 2026-04-15 12:22 | 35.04823 | 31.89958 | 17411 ft | 431 kts | 125° |
| 2026-04-15 12:22 | 35.03171 | 31.92960 | 16792 ft | 427 kts | 126° |
| 2026-04-15 12:22 | 35.01518 | 31.95965 | 16189 ft | 423 kts | 126° |
| 2026-04-15 12:23 | 34.99896 | 31.98907 | 15593 ft | 419 kts | 126° |
| 2026-04-15 12:23 | 34.98273 | 32.01851 | 15009 ft | 415 kts | 126° |
| 2026-04-15 12:23 | 34.96661 | 32.04771 | 14429 ft | 411 kts | 126° |
| 2026-04-15 12:23 | 34.95084 | 32.07628 | 13828 ft | 409 kts | 127° |
| 2026-04-15 12:24 | 34.93487 | 32.10515 | 13188 ft | 405 kts | 127° |
| 2026-04-15 12:24 | 34.91917 | 32.13351 | 12574 ft | 402 kts | 126° |
| 2026-04-15 12:24 | 34.90366 | 32.16146 | 11954 ft | 399 kts | 126° |
| 2026-04-15 12:24 | 34.88812 | 32.18943 | 11363 ft | 395 kts | 126° |
| 2026-04-15 12:25 | 34.87308 | 32.21650 | 11163 ft | 381 kts | 126° |
| 2026-04-15 12:25 | 34.85842 | 32.24289 | 10985 ft | 368 kts | 126° |
| 2026-04-15 12:25 | 34.84427 | 32.26835 | 10830 ft | 356 kts | 126° |
| 2026-04-15 12:25 | 34.83055 | 32.29300 | 10676 ft | 345 kts | 126° |
| 2026-04-15 12:26 | 34.81738 | 32.31663 | 10541 ft | 334 kts | 126° |
| 2026-04-15 12:26 | 34.80447 | 32.33978 | 10403 ft | 325 kts | 126° |
| 2026-04-15 12:26 | 34.79210 | 32.36197 | 10269 ft | 316 kts | 126° |
| 2026-04-15 12:26 | 34.77991 | 32.38384 | 10138 ft | 307 kts | 126° |
| 2026-04-15 12:27 | 34.76815 | 32.40492 | 10007 ft | 299 kts | 126° |
| 2026-04-15 12:27 | 34.75667 | 32.42549 | 9936 ft | 290 kts | 126° |
| 2026-04-15 12:27 | 34.74515 | 32.44611 | 9491 ft | 295 kts | 126° |
| 2026-04-15 12:27 | 34.73358 | 32.46680 | 9146 ft | 295 kts | 126° |
| 2026-04-15 12:28 | 34.72201 | 32.48745 | 8851 ft | 293 kts | 125° |
| 2026-04-15 12:28 | 34.71064 | 32.50774 | 8577 ft | 293 kts | 127° |
| 2026-04-15 12:28 | 34.69602 | 32.52395 | 8463 ft | 282 kts | 154° |
| 2026-04-15 12:28 | 34.67745 | 32.52976 | 8158 ft | 278 kts | 181° |
| 2026-04-15 12:29 | 34.65859 | 32.52534 | 7878 ft | 275 kts | 204° |
| 2026-04-15 12:29 | 34.64291 | 32.51227 | 7570 ft | 275 kts | 227° |
| 2026-04-15 12:29 | 34.63283 | 32.49300 | 7290 ft | 273 kts | 250° |
| 2026-04-15 12:29 | 34.62985 | 32.47044 | 6979 ft | 271 kts | 280° |
| 2026-04-15 12:30 | 34.63646 | 32.44939 | 6742 ft | 266 kts | 300° |
| 2026-04-15 12:30 | 34.64518 | 32.42969 | 6440 ft | 267 kts | 300° |
| 2026-04-15 12:30 | 34.65390 | 32.40962 | 6157 ft | 267 kts | 299° |
| 2026-04-15 12:30 | 34.66238 | 32.38944 | 5874 ft | 268 kts | 298° |
| 2026-04-15 12:31 | 34.67069 | 32.36912 | 5596 ft | 267 kts | 298° |
| 2026-04-15 12:31 | 34.67872 | 32.34908 | 5334 ft | 267 kts | 297° |
| 2026-04-15 12:31 | 34.68675 | 32.32874 | 5072 ft | 266 kts | 297° |
| 2026-04-15 12:31 | 34.69473 | 32.30838 | 4826 ft | 265 kts | 297° |
| 2026-04-15 12:32 | 34.70257 | 32.28831 | 4567 ft | 264 kts | 296° |
| 2026-04-15 12:32 | 34.71044 | 32.26813 | 4320 ft | 263 kts | 296° |
| 2026-04-15 12:32 | 34.71698 | 32.24767 | 4056 ft | 263 kts | 288° |
| 2026-04-15 12:32 | 34.72562 | 32.22867 | 3845 ft | 254 kts | 322° |
| 2026-04-15 12:33 | 34.74108 | 32.22037 | 3761 ft | 237 kts | 358° |
| 2026-04-15 12:33 | 34.75690 | 32.22271 | 3670 ft | 224 kts | 22° |
| 2026-04-15 12:33 | 34.76999 | 32.23232 | 3569 ft | 222 kts | 46° |
| 2026-04-15 12:33 | 34.77857 | 32.24780 | 3475 ft | 219 kts | 71° |
| 2026-04-15 12:34 | 34.78135 | 32.26551 | 3293 ft | 216 kts | 91° |
| 2026-04-15 12:34 | 34.77820 | 32.28332 | 3063 ft | 214 kts | 110° |
| 2026-04-15 12:34 | 34.77315 | 32.30023 | 2858 ft | 210 kts | 109° |
| 2026-04-15 12:34 | 34.76837 | 32.31652 | 2644 ft | 204 kts | 109° |
| 2026-04-15 12:35 | 34.76361 | 32.33262 | 2418 ft | 198 kts | 109° |
| 2026-04-15 12:35 | 34.75898 | 32.34817 | 2140 ft | 196 kts | 109° |
| 2026-04-15 12:35 | 34.75437 | 32.36361 | 1885 ft | 192 kts | 109° |
| 2026-04-15 12:35 | 34.74983 | 32.37880 | 1620 ft | 185 kts | 109° |
| 2026-04-15 12:36 | 34.74563 | 32.39285 | 1381 ft | 174 kts | 109° |
| 2026-04-15 12:36 | 34.74159 | 32.40637 | 1152 ft | 168 kts | 109° |
| 2026-04-15 12:36 | 34.73777 | 32.41935 | 932 ft | 158 kts | 103° |
| 2026-04-15 12:36 | 34.73433 | 32.43214 | 709 ft | 164 kts | 101° |
| 2026-04-15 12:37 | 34.73110 | 32.44524 | 471 ft | 164 kts | 111° |
| 2026-04-15 12:37 | 34.72612 | 32.45796 | 284 ft | 167 kts | 104° |
| 2026-04-15 12:37 | 34.72221 | 32.47113 | 108 ft | 166 kts | 106° |
| 2026-04-15 12:37 | 34.71844 | 32.48383 | 37 ft | 142 kts | 110° |
| 2026-04-15 12:38 | 34.71575 | 32.49263 | 34 ft | 79 kts | 110° |
| 2026-04-15 12:38 | 34.71460 | 32.49646 | 30 ft | 18 kts | 110° |
| 2026-04-15 12:38 | 34.71422 | 32.49773 | 30 ft | 16 kts | 110° |
| 2026-04-15 12:38 | 34.71441 | 32.49893 | 30 ft | 15 kts | 54° |
| 2026-04-15 12:39 | 34.71520 | 32.49956 | 31 ft | 14 kts | 339° |
| 2026-04-15 12:39 | 34.71571 | 32.49858 | 30 ft | 14 kts | 292° |
| 2026-04-15 12:39 | 34.71605 | 32.49751 | 32 ft | 13 kts | 288° |
| 2026-04-15 12:39 | 34.71636 | 32.49637 | 32 ft | 16 kts | 289° |
| 2026-04-15 12:40 | 34.71678 | 32.49494 | 32 ft | 20 kts | 290° |
| 2026-04-15 12:40 | 34.71729 | 32.49328 | 32 ft | 23 kts | 291° |
| 2026-04-15 12:40 | 34.71792 | 32.49138 | 33 ft | 25 kts | 292° |
| 2026-04-15 12:40 | 34.71851 | 32.48935 | 35 ft | 25 kts | 285° |
| 2026-04-15 12:41 | 34.71908 | 32.48740 | 35 ft | 25 kts | 295° |
| 2026-04-15 12:41 | 34.71963 | 32.48566 | 34 ft | 15 kts | 290° |
| 2026-04-15 12:41 | 34.71917 | 32.48472 | 36 ft | 17 kts | 200° |
| 2026-04-15 12:41 | 34.71793 | 32.48417 | 37 ft | 20 kts | 200° |
| 2026-04-15 12:42 | 34.71645 | 32.48355 | 36 ft | 24 kts | 199° |
| 2026-04-15 12:42 | 34.71475 | 32.48277 | 36 ft | 27 kts | 204° |
| 2026-04-15 12:42 | 34.71371 | 32.48226 | 36 ft | 9 kts | 198° |
| 2026-04-15 12:42 | 34.71342 | 32.48214 | 36 ft | 0 kts | 199° |